sensor_id;sensor_type;location;lat;lon;timestamp;pressure;altitude;pressure_sealevel;temperature;humidity
68525;BME280;55524;51.380;13.372;2023-04-06T00:01:59;101086.97;;;-0.37;96.57
68525;BME280;55524;51.380;13.372;2023-04-06T00:04:25;101089.47;;;-0.43;97.08
68525;BME280;55524;51.380;13.372;2023-04-06T00:06:52;101088.50;;;-0.48;97.38
68525;BME280;55524;51.380;13.372;2023-04-06T00:09:18;101090.16;;;-0.52;97.45
68525;BME280;55524;51.380;13.372;2023-04-06T00:11:45;101091.81;;;-0.57;98.03
68525;BME280;55524;51.380;13.372;2023-04-06T00:14:11;101084.81;;;-0.60;98.26
68525;BME280;55524;51.380;13.372;2023-04-06T00:16:37;101081.34;;;-0.62;98.24
68525;BME280;55524;51.380;13.372;2023-04-06T00:19:04;101077.16;;;-0.55;98.56
68525;BME280;55524;51.380;13.372;2023-04-06T00:21:30;101075.41;;;-0.55;98.71
68525;BME280;55524;51.380;13.372;2023-04-06T00:23:57;101076.25;;;-0.56;98.54
68525;BME280;55524;51.380;13.372;2023-04-06T00:26:23;101077.09;;;-0.58;98.24
68525;BME280;55524;51.380;13.372;2023-04-06T00:28:49;101084.75;;;-0.64;98.19
68525;BME280;55524;51.380;13.372;2023-04-06T00:31:18;101080.31;;;-0.70;98.51
68525;BME280;55524;51.380;13.372;2023-04-06T00:33:44;101084.66;;;-0.70;98.84
68525;BME280;55524;51.380;13.372;2023-04-06T00:36:10;101088.03;;;-0.75;98.88
68525;BME280;55524;51.380;13.372;2023-04-06T00:38:36;101080.13;;;-0.81;99.44
68525;BME280;55524;51.380;13.372;2023-04-06T00:41:04;101078.31;;;-0.83;99.77
68525;BME280;55524;51.380;13.372;2023-04-06T00:43:32;101077.44;;;-0.84;100.00
68525;BME280;55524;51.380;13.372;2023-04-06T00:45:58;101079.22;;;-0.83;100.00
68525;BME280;55524;51.380;13.372;2023-04-06T00:48:24;101076.63;;;-0.83;100.00
68525;BME280;55524;51.380;13.372;2023-04-06T00:50:51;101081.84;;;-0.81;100.00
68525;BME280;55524;51.380;13.372;2023-04-06T00:53:17;101082.00;;;-0.72;100.00
68525;BME280;55524;51.380;13.372;2023-04-06T00:55:43;101076.78;;;-0.75;100.00
68525;BME280;55524;51.380;13.372;2023-04-06T00:58:09;101079.47;;;-0.69;100.00
68525;BME280;55524;51.380;13.372;2023-04-06T01:00:48;101075.22;;;-0.65;99.77
68525;BME280;55524;51.380;13.372;2023-04-06T01:03:14;101079.63;;;-0.61;99.23
68525;BME280;55524;51.380;13.372;2023-04-06T01:05:40;101077.00;;;-0.63;99.18
68525;BME280;55524;51.380;13.372;2023-04-06T01:08:08;101069.16;;;-0.66;98.84
68525;BME280;55524;51.380;13.372;2023-04-06T01:10:35;101075.22;;;-0.65;98.92
68525;BME280;55524;51.380;13.372;2023-04-06T01:13:01;101073.34;;;-0.72;99.27
68525;BME280;55524;51.380;13.372;2023-04-06T01:15:28;101077.59;;;-0.78;98.84
68525;BME280;55524;51.380;13.372;2023-04-06T01:17:54;101070.53;;;-0.83;99.07
68525;BME280;55524;51.380;13.372;2023-04-06T01:20:21;101072.16;;;-0.90;99.42
68525;BME280;55524;51.380;13.372;2023-04-06T01:22:47;101072.94;;;-0.94;99.90
68525;BME280;55524;51.380;13.372;2023-04-06T01:25:13;101072.03;;;-0.96;100.00
68525;BME280;55524;51.380;13.372;2023-04-06T01:27:40;101074.59;;;-0.97;100.00
68525;BME280;55524;51.380;13.372;2023-04-06T01:30:07;101071.16;;;-0.98;100.00
68525;BME280;55524;51.380;13.372;2023-04-06T01:32:33;101074.53;;;-1.02;100.00
68525;BME280;55524;51.380;13.372;2023-04-06T01:35:00;101072.00;;;-0.97;100.00
68525;BME280;55524;51.380;13.372;2023-04-06T01:37:26;101065.28;;;-0.88;100.00
68525;BME280;55524;51.380;13.372;2023-04-06T01:39:53;101066.25;;;-0.83;100.00
68525;BME280;55524;51.380;13.372;2023-04-06T01:42:19;101061.88;;;-0.85;100.00
68525;BME280;55524;51.380;13.372;2023-04-06T01:44:45;101063.44;;;-0.95;100.00
68525;BME280;55524;51.380;13.372;2023-04-06T01:47:12;101059.84;;;-1.02;100.00
68525;BME280;55524;51.380;13.372;2023-04-06T01:49:38;101063.22;;;-1.04;100.00
68525;BME280;55524;51.380;13.372;2023-04-06T01:52:04;101061.34;;;-1.13;100.00
68525;BME280;55524;51.380;13.372;2023-04-06T01:54:31;101061.25;;;-1.16;100.00
68525;BME280;55524;51.380;13.372;2023-04-06T01:56:57;101065.59;;;-1.15;100.00
68525;BME280;55524;51.380;13.372;2023-04-06T01:59:23;101051.75;;;-1.17;100.00
68525;BME280;55524;51.380;13.372;2023-04-06T02:01:49;101059.59;;;-1.14;100.00
68525;BME280;55524;51.380;13.372;2023-04-06T02:04:16;101062.19;;;-1.14;100.00
68525;BME280;55524;51.380;13.372;2023-04-06T02:06:42;101065.66;;;-1.13;100.00
68525;BME280;55524;51.380;13.372;2023-04-06T02:09:09;101068.25;;;-1.12;100.00
68525;BME280;55524;51.380;13.372;2023-04-06T02:11:35;101057.72;;;-1.19;100.00
68525;BME280;55524;51.380;13.372;2023-04-06T02:14:01;101057.53;;;-1.30;100.00
68525;BME280;55524;51.380;13.372;2023-04-06T02:16:28;101058.31;;;-1.34;100.00
68525;BME280;55524;51.380;13.372;2023-04-06T02:18:54;101058.97;;;-1.43;100.00
68525;BME280;55524;51.380;13.372;2023-04-06T02:21:21;101053.94;;;-1.37;100.00
68525;BME280;55524;51.380;13.372;2023-04-06T02:23:47;101055.66;;;-1.37;100.00
68525;BME280;55524;51.380;13.372;2023-04-06T02:26:15;101056.50;;;-1.38;100.00
68525;BME280;55524;51.380;13.372;2023-04-06T02:28:41;101062.13;;;-1.58;100.00
68525;BME280;55524;51.380;13.372;2023-04-06T02:31:08;101054.22;;;-1.64;100.00
68525;BME280;55524;51.380;13.372;2023-04-06T02:33:37;101048.13;;;-1.66;100.00
68525;BME280;55524;51.380;13.372;2023-04-06T02:36:04;101043.94;;;-1.59;100.00
68525;BME280;55524;51.380;13.372;2023-04-06T02:38:31;101043.16;;;-1.55;100.00
68525;BME280;55524;51.380;13.372;2023-04-06T02:40:57;101048.31;;;-1.57;100.00
68525;BME280;55524;51.380;13.372;2023-04-06T02:43:23;101053.13;;;-1.74;100.00
68525;BME280;55524;51.380;13.372;2023-04-06T02:45:49;101053.00;;;-1.80;100.00
68525;BME280;55524;51.380;13.372;2023-04-06T02:48:16;101059.88;;;-1.82;100.00
68525;BME280;55524;51.380;13.372;2023-04-06T02:50:42;101051.16;;;-1.85;100.00
68525;BME280;55524;51.380;13.372;2023-04-06T02:53:08;101051.97;;;-1.86;100.00
68525;BME280;55524;51.380;13.372;2023-04-06T02:55:35;101049.34;;;-1.89;100.00
68525;BME280;55524;51.380;13.372;2023-04-06T02:58:01;101050.03;;;-1.95;100.00
68525;BME280;55524;51.380;13.372;2023-04-06T03:00:27;101059.34;;;-2.03;100.00
68525;BME280;55524;51.380;13.372;2023-04-06T03:02:54;101057.53;;;-2.07;100.00
68525;BME280;55524;51.380;13.372;2023-04-06T03:05:20;101054.91;;;-2.09;100.00
68525;BME280;55524;51.380;13.372;2023-04-06T03:07:46;101051.50;;;-2.06;100.00
68525;BME280;55524;51.380;13.372;2023-04-06T03:10:13;101055.88;;;-2.05;100.00
68525;BME280;55524;51.380;13.372;2023-04-06T03:12:39;101057.59;;;-2.04;100.00
68525;BME280;55524;51.380;13.372;2023-04-06T03:15:08;101049.88;;;-2.03;100.00
68525;BME280;55524;51.380;13.372;2023-04-06T03:17:34;101059.44;;;-1.99;100.00
68525;BME280;55524;51.380;13.372;2023-04-06T03:20:00;101046.75;;;-1.89;100.00
68525;BME280;55524;51.380;13.372;2023-04-06T03:22:27;101050.22;;;-1.87;100.00
68525;BME280;55524;51.380;13.372;2023-04-06T03:24:53;101054.50;;;-1.89;100.00
68525;BME280;55524;51.380;13.372;2023-04-06T03:27:19;101063.03;;;-1.93;100.00
68525;BME280;55524;51.380;13.372;2023-04-06T03:29:46;101056.03;;;-1.98;100.00
68525;BME280;55524;51.380;13.372;2023-04-06T03:32:12;101056.81;;;-2.02;100.00
68525;BME280;55524;51.380;13.372;2023-04-06T03:34:39;101058.56;;;-2.01;100.00
68525;BME280;55524;51.380;13.372;2023-04-06T03:37:12;101058.50;;;-2.02;100.00
68525;BME280;55524;51.380;13.372;2023-04-06T03:40:00;101061.09;;;-2.02;100.00
68525;BME280;55524;51.380;13.372;2023-04-06T03:42:26;101061.06;;;-2.04;100.00
68525;BME280;55524;51.380;13.372;2023-04-06T03:44:52;101065.38;;;-2.04;100.00
68525;BME280;55524;51.380;13.372;2023-04-06T03:47:19;101074.00;;;-2.04;100.00
68525;BME280;55524;51.380;13.372;2023-04-06T03:49:45;101069.63;;;-2.06;100.00
68525;BME280;55524;51.380;13.372;2023-04-06T03:52:14;101071.31;;;-2.08;100.00
68525;BME280;55524;51.380;13.372;2023-04-06T03:54:41;101070.53;;;-2.06;100.00
68525;BME280;55524;51.380;13.372;2023-04-06T03:57:08;101073.94;;;-2.07;100.00
68525;BME280;55524;51.380;13.372;2023-04-06T03:59:34;101076.41;;;-2.11;100.00
68525;BME280;55524;51.380;13.372;2023-04-06T04:02:01;101085.03;;;-2.12;100.00
68525;BME280;55524;51.380;13.372;2023-04-06T04:04:27;101081.59;;;-2.11;100.00
68525;BME280;55524;51.380;13.372;2023-04-06T04:06:53;101094.50;;;-2.13;100.00
68525;BME280;55524;51.380;13.372;2023-04-06T04:09:19;101096.25;;;-2.12;100.00
68525;BME280;55524;51.380;13.372;2023-04-06T04:11:49;101090.00;;;-2.21;100.00
68525;BME280;55524;51.380;13.372;2023-04-06T04:14:15;101090.66;;;-2.29;100.00
68525;BME280;55524;51.380;13.372;2023-04-06T04:16:41;101086.38;;;-2.27;100.00
68525;BME280;55524;51.380;13.372;2023-04-06T04:19:08;101079.50;;;-2.26;100.00
68525;BME280;55524;51.380;13.372;2023-04-06T04:21:41;101082.25;;;-2.20;100.00
68525;BME280;55524;51.380;13.372;2023-04-06T04:24:08;101081.50;;;-2.16;100.00
68525;BME280;55524;51.380;13.372;2023-04-06T04:26:34;101085.03;;;-2.12;100.00
68525;BME280;55524;51.380;13.372;2023-04-06T04:29:04;101079.75;;;-2.17;100.00
68525;BME280;55524;51.380;13.372;2023-04-06T04:31:30;101088.94;;;-2.28;100.00
68525;BME280;55524;51.380;13.372;2023-04-06T04:34:00;101086.25;;;-2.33;100.00
68525;BME280;55524;51.380;13.372;2023-04-06T04:36:27;101081.94;;;-2.32;100.00
68525;BME280;55524;51.380;13.372;2023-04-06T04:38:53;101087.13;;;-2.32;100.00
68525;BME280;55524;51.380;13.372;2023-04-06T04:41:22;101080.03;;;-2.39;100.00
68525;BME280;55524;51.380;13.372;2023-04-06T04:43:49;101083.47;;;-2.40;100.00
68525;BME280;55524;51.380;13.372;2023-04-06T04:46:15;101083.78;;;-2.28;100.00
68525;BME280;55524;51.380;13.372;2023-04-06T04:48:41;101081.31;;;-2.22;100.00
68525;BME280;55524;51.380;13.372;2023-04-06T04:51:08;101077.16;;;-2.17;100.00
68525;BME280;55524;51.380;13.372;2023-04-06T04:53:37;101083.28;;;-2.13;100.00
68525;BME280;55524;51.380;13.372;2023-04-06T04:56:06;101078.78;;;-2.20;100.00
68525;BME280;55524;51.380;13.372;2023-04-06T04:58:32;101075.22;;;-2.26;100.00
68525;BME280;55524;51.380;13.372;2023-04-06T05:00:59;101082.09;;;-2.26;100.00
68525;BME280;55524;51.380;13.372;2023-04-06T05:03:26;101082.16;;;-2.23;100.00
68525;BME280;55524;51.380;13.372;2023-04-06T05:05:53;101085.88;;;-2.13;100.00
68525;BME280;55524;51.380;13.372;2023-04-06T05:08:20;101089.53;;;-2.04;100.00
68525;BME280;55524;51.380;13.372;2023-04-06T05:10:47;101093.00;;;-2.03;100.00
68525;BME280;55524;51.380;13.372;2023-04-06T05:13:14;101089.53;;;-2.05;100.00
68525;BME280;55524;51.380;13.372;2023-04-06T05:15:41;101092.31;;;-1.96;100.00
68525;BME280;55524;51.380;13.372;2023-04-06T05:18:08;101088.22;;;-1.86;100.00
68525;BME280;55524;51.380;13.372;2023-04-06T05:20:35;101090.34;;;-1.70;100.00
68525;BME280;55524;51.380;13.372;2023-04-06T05:23:02;101093.59;;;-1.41;100.00
68525;BME280;55524;51.380;13.372;2023-04-06T05:25:32;101092.19;;;-1.25;100.00
68525;BME280;55524;51.380;13.372;2023-04-06T05:27:59;101091.66;;;-1.10;100.00
68525;BME280;55524;51.380;13.372;2023-04-06T05:30:46;101091.97;;;-0.95;100.00
68525;BME280;55524;51.380;13.372;2023-04-06T05:33:12;101085.22;;;-0.85;100.00
68525;BME280;55524;51.380;13.372;2023-04-06T05:35:39;101096.63;;;-0.76;100.00
68525;BME280;55524;51.380;13.372;2023-04-06T05:38:08;101096.97;;;-0.59;100.00
68525;BME280;55524;51.380;13.372;2023-04-06T05:40:38;101094.59;;;-0.46;100.00
68525;BME280;55524;51.380;13.372;2023-04-06T05:43:07;101098.28;;;-0.34;100.00
68525;BME280;55524;51.380;13.372;2023-04-06T05:45:34;101094.16;;;-0.22;100.00
68525;BME280;55524;51.380;13.372;2023-04-06T05:48:02;101091.81;;;-0.07;99.20
68525;BME280;55524;51.380;13.372;2023-04-06T05:50:28;101093.63;;;-0.02;99.86
68525;BME280;55524;51.380;13.372;2023-04-06T05:52:55;101095.56;;;0.10;99.09
68525;BME280;55524;51.380;13.372;2023-04-06T05:55:21;101094.69;;;0.11;99.63
68525;BME280;55524;51.380;13.372;2023-04-06T05:57:50;101099.25;;;0.28;99.18
68525;BME280;55524;51.380;13.372;2023-04-06T06:00:17;101095.97;;;0.38;99.10
68525;BME280;55524;51.380;13.372;2023-04-06T06:02:44;101097.88;;;0.51;98.58
68525;BME280;55524;51.380;13.372;2023-04-06T06:05:10;101092.06;;;0.67;97.96
68525;BME280;55524;51.380;13.372;2023-04-06T06:07:37;101093.06;;;0.77;97.45
68525;BME280;55524;51.380;13.372;2023-04-06T06:10:03;101091.56;;;0.96;96.25
68525;BME280;55524;51.380;13.372;2023-04-06T06:12:33;101084.72;;;1.06;94.64
68525;BME280;55524;51.380;13.372;2023-04-06T06:15:09;101090.94;;;1.15;93.72
68525;BME280;55524;51.380;13.372;2023-04-06T06:17:39;101087.59;;;1.30;93.79
68525;BME280;55524;51.380;13.372;2023-04-06T06:20:07;101084.31;;;1.50;93.29
68525;BME280;55524;51.380;13.372;2023-04-06T06:22:33;101091.34;;;1.57;92.58
68525;BME280;55524;51.380;13.372;2023-04-06T06:25:01;101096.75;;;1.78;93.27
68525;BME280;55524;51.380;13.372;2023-04-06T06:27:31;101091.69;;;1.92;92.36
68525;BME280;55524;51.380;13.372;2023-04-06T06:29:57;101095.25;;;2.03;92.19
68525;BME280;55524;51.380;13.372;2023-04-06T06:32:23;101088.34;;;2.11;90.70
68525;BME280;55524;51.380;13.372;2023-04-06T06:34:49;101082.31;;;2.17;90.13
68525;BME280;55524;51.380;13.372;2023-04-06T06:37:16;101089.38;;;2.30;91.05
68525;BME280;55524;51.380;13.372;2023-04-06T06:39:42;101082.53;;;2.46;89.42
68525;BME280;55524;51.380;13.372;2023-04-06T06:42:08;101088.69;;;2.63;89.75
68525;BME280;55524;51.380;13.372;2023-04-06T06:44:35;101079.22;;;2.82;88.21
68525;BME280;55524;51.380;13.372;2023-04-06T06:47:03;101082.75;;;2.90;85.70
68525;BME280;55524;51.380;13.372;2023-04-06T06:49:30;101081.94;;;3.11;86.54
68525;BME280;55524;51.380;13.372;2023-04-06T06:51:59;101082.88;;;3.29;84.70
68525;BME280;55524;51.380;13.372;2023-04-06T06:54:25;101079.38;;;3.22;83.23
68525;BME280;55524;51.380;13.372;2023-04-06T06:59:38;101055.09;;;3.77;82.02
68525;BME280;55524;51.380;13.372;2023-04-06T07:02:04;101068.16;;;3.86;82.40
68525;BME280;55524;51.380;13.372;2023-04-06T07:04:31;101066.41;;;3.86;81.48
68525;BME280;55524;51.380;13.372;2023-04-06T07:06:57;101061.16;;;3.91;80.76
68525;BME280;55524;51.380;13.372;2023-04-06T07:09:32;101062.91;;;4.16;80.64
68525;BME280;55524;51.380;13.372;2023-04-06T07:11:59;101059.38;;;4.45;81.10
68525;BME280;55524;51.380;13.372;2023-04-06T07:14:29;101068.03;;;4.68;81.49
68525;BME280;55524;51.380;13.372;2023-04-06T07:16:58;101066.13;;;5.03;80.69
68525;BME280;55524;51.380;13.372;2023-04-06T07:19:24;101059.94;;;5.24;79.35
68525;BME280;55524;51.380;13.372;2023-04-06T07:21:51;101047.25;;;5.88;77.94
68525;BME280;55524;51.380;13.372;2023-04-06T07:24:29;101001.75;;;5.89;73.01
68525;BME280;55524;51.380;13.372;2023-04-06T07:26:55;101011.03;;;6.29;72.99
68525;BME280;55524;51.380;13.372;2023-04-06T07:29:22;101013.47;;;6.47;73.01
68525;BME280;55524;51.380;13.372;2023-04-06T07:35:18;100974.84;;;7.22;68.38
68525;BME280;55524;51.380;13.372;2023-04-06T07:37:48;100964.13;;;7.32;68.01
68525;BME280;55524;51.380;13.372;2023-04-06T07:40:14;100950.94;;;7.35;66.46
68525;BME280;55524;51.380;13.372;2023-04-06T07:42:41;100970.56;;;7.70;66.52
68525;BME280;55524;51.380;13.372;2023-04-06T07:45:10;100943.72;;;7.99;64.35
68525;BME280;55524;51.380;13.372;2023-04-06T07:47:36;100922.00;;;8.33;62.41
68525;BME280;55524;51.380;13.372;2023-04-06T07:50:03;100939.50;;;8.37;62.74
68525;BME280;55524;51.380;13.372;2023-04-06T07:52:30;100945.91;;;8.22;63.35
68525;BME280;55524;51.380;13.372;2023-04-06T07:54:58;100973.75;;;7.89;65.51
68525;BME280;55524;51.380;13.372;2023-04-06T07:57:25;100952.75;;;7.86;63.53
68525;BME280;55524;51.380;13.372;2023-04-06T07:59:51;100942.97;;;7.93;62.94
68525;BME280;55524;51.380;13.372;2023-04-06T08:02:18;100936.84;;;7.92;62.95
68525;BME280;55524;51.380;13.372;2023-04-06T08:04:44;100952.31;;;8.07;63.61
68525;BME280;55524;51.380;13.372;2023-04-06T08:07:14;100934.72;;;8.11;61.77
68525;BME280;55524;51.380;13.372;2023-04-06T08:09:49;100908.78;;;8.34;58.82
68525;BME280;55524;51.380;13.372;2023-04-06T08:12:38;100896.44;;;8.80;56.48
68525;BME280;55524;51.380;13.372;2023-04-06T08:15:14;100870.34;;;8.69;54.47
68525;BME280;55524;51.380;13.372;2023-04-06T08:17:46;100856.69;;;8.50;53.43
68525;BME280;55524;51.380;13.372;2023-04-06T08:20:17;100867.19;;;8.53;53.94
68525;BME280;55524;51.380;13.372;2023-04-06T08:22:55;100850.44;;;8.93;52.20
68525;BME280;55524;51.380;13.372;2023-04-06T08:25:33;100835.25;;;9.04;51.12
68525;BME280;55524;51.380;13.372;2023-04-06T08:28:04;100824.97;;;9.60;48.70
68525;BME280;55524;51.380;13.372;2023-04-06T08:30:31;100813.00;;;9.49;47.81
68525;BME280;55524;51.380;13.372;2023-04-06T08:33:09;100838.53;;;9.13;50.56
68525;BME280;55524;51.380;13.372;2023-04-06T08:35:38;100846.03;;;8.94;51.17
68525;BME280;55524;51.380;13.372;2023-04-06T08:38:28;100846.03;;;9.29;50.68
68525;BME280;55524;51.380;13.372;2023-04-06T08:41:13;100835.94;;;9.78;48.65
68525;BME280;55524;51.380;13.372;2023-04-06T08:46:19;100803.50;;;10.35;46.39
68525;BME280;55524;51.380;13.372;2023-04-06T08:48:58;100800.72;;;10.68;45.01
68525;BME280;55524;51.380;13.372;2023-04-06T08:51:29;100804.28;;;10.67;46.11
68525;BME280;55524;51.380;13.372;2023-04-06T08:54:06;100779.75;;;10.90;43.67
68525;BME280;55524;51.380;13.372;2023-04-06T08:56:44;100778.66;;;10.69;45.03
68525;BME280;55524;51.380;13.372;2023-04-06T08:59:17;100799.03;;;10.92;45.76
68525;BME280;55524;51.380;13.372;2023-04-06T09:01:48;100784.03;;;10.92;43.21
68525;BME280;55524;51.380;13.372;2023-04-06T09:04:14;100790.47;;;10.85;45.00
68525;BME280;55524;51.380;13.372;2023-04-06T09:06:43;100771.50;;;10.99;41.69
68525;BME280;55524;51.380;13.372;2023-04-06T09:09:12;100771.41;;;11.02;42.52
68525;BME280;55524;51.380;13.372;2023-04-06T09:12:02;100765.06;;;10.81;42.37
68525;BME280;55524;51.380;13.372;2023-04-06T09:14:38;100767.41;;;10.89;43.21
68525;BME280;55524;51.380;13.372;2023-04-06T09:17:06;100759.31;;;11.20;41.47
68525;BME280;55524;51.380;13.372;2023-04-06T09:20:10;100751.38;;;11.45;41.14
68525;BME280;55524;51.380;13.372;2023-04-06T09:22:39;100743.44;;;11.93;39.83
68525;BME280;55524;51.380;13.372;2023-04-06T09:25:09;100739.50;;;11.80;39.46
68525;BME280;55524;51.380;13.372;2023-04-06T09:27:38;100727.47;;;11.95;39.20
68525;BME280;55524;51.380;13.372;2023-04-06T09:30:15;100721.16;;;11.50;38.02
68525;BME280;55524;51.380;13.372;2023-04-06T09:32:50;100696.69;;;11.92;36.57
68525;BME280;55524;51.380;13.372;2023-04-06T09:35:20;100723.50;;;11.35;39.27
68525;BME280;55524;51.380;13.372;2023-04-06T09:38:20;100733.59;;;11.97;39.96
68525;BME280;55524;51.380;13.372;2023-04-06T09:40:52;100715.41;;;12.75;38.18
68525;BME280;55524;51.380;13.372;2023-04-06T09:43:39;100683.06;;;12.01;35.14
68525;BME280;55524;51.380;13.372;2023-04-06T09:46:05;100690.22;;;12.43;36.31
68525;BME280;55524;51.380;13.372;2023-04-06T09:48:35;100689.78;;;12.54;36.26
68525;BME280;55524;51.380;13.372;2023-04-06T09:51:05;100702.59;;;12.85;37.84
68525;BME280;55524;51.380;13.372;2023-04-06T09:53:36;100685.63;;;12.89;35.65
68525;BME280;55524;51.380;13.372;2023-04-06T09:56:11;100689.75;;;12.76;36.23
68525;BME280;55524;51.380;13.372;2023-04-06T09:58:42;100689.00;;;12.72;35.88
68525;BME280;55524;51.380;13.372;2023-04-06T10:01:21;100680.41;;;13.08;35.29
68525;BME280;55524;51.380;13.372;2023-04-06T10:06:41;100660.44;;;12.99;33.82
68525;BME280;55524;51.380;13.372;2023-04-06T10:09:11;100649.06;;;11.91;34.27
68525;BME280;55524;51.380;13.372;2023-04-06T10:11:43;100651.84;;;12.10;33.27
68525;BME280;55524;51.380;13.372;2023-04-06T10:14:10;100665.56;;;11.74;36.10
68525;BME280;55524;51.380;13.372;2023-04-06T10:16:40;100669.09;;;12.20;34.29
68525;BME280;55524;51.380;13.372;2023-04-06T10:19:15;100664.53;;;12.66;35.16
68525;BME280;55524;51.380;13.372;2023-04-06T10:21:51;100659.31;;;12.42;34.69
68525;BME280;55524;51.380;13.372;2023-04-06T10:24:25;100659.47;;;13.21;34.07
68525;BME280;55524;51.380;13.372;2023-04-06T10:27:06;100647.63;;;13.09;33.44
68525;BME280;55524;51.380;13.372;2023-04-06T10:29:48;100656.25;;;12.94;33.51
68525;BME280;55524;51.380;13.372;2023-04-06T10:32:37;100658.19;;;13.69;34.99
68525;BME280;55524;51.380;13.372;2023-04-06T10:35:12;100675.13;;;13.47;36.22
68525;BME280;55524;51.380;13.372;2023-04-06T10:38:01;100658.19;;;12.05;35.34
68525;BME280;55524;51.380;13.372;2023-04-06T10:40:38;100667.25;;;12.64;35.00
68525;BME280;55524;51.380;13.372;2023-04-06T10:43:21;100650.69;;;13.00;33.37
68525;BME280;55524;51.380;13.372;2023-04-06T10:46:24;100687.38;;;13.31;37.04
68525;BME280;55524;51.380;13.372;2023-04-06T10:48:56;100664.00;;;13.77;34.35
68525;BME280;55524;51.380;13.372;2023-04-06T10:51:39;100680.81;;;13.96;36.46
68525;BME280;55524;51.380;13.372;2023-04-06T10:54:52;100653.69;;;13.71;34.83
68525;BME280;55524;51.380;13.372;2023-04-06T10:57:30;100658.03;;;12.73;35.10
68525;BME280;55524;51.380;13.372;2023-04-06T11:00:00;100663.41;;;12.07;36.04
68525;BME280;55524;51.380;13.372;2023-04-06T11:02:35;100659.34;;;11.98;35.26
68525;BME280;55524;51.380;13.372;2023-04-06T11:05:04;100657.44;;;11.56;34.86
68525;BME280;55524;51.380;13.372;2023-04-06T11:07:33;100663.66;;;12.65;35.79
68525;BME280;55524;51.380;13.372;2023-04-06T11:09:59;100656.19;;;13.55;35.50
68525;BME280;55524;51.380;13.372;2023-04-06T11:12:37;100642.78;;;14.13;33.78
68525;BME280;55524;51.380;13.372;2023-04-06T11:15:33;100636.88;;;14.43;33.09
68525;BME280;55524;51.380;13.372;2023-04-06T11:18:07;100646.53;;;14.80;34.41
68525;BME280;55524;51.380;13.372;2023-04-06T11:20:38;100624.78;;;15.22;32.45
68525;BME280;55524;51.380;13.372;2023-04-06T11:23:04;100620.38;;;14.88;31.68
68525;BME280;55524;51.380;13.372;2023-04-06T11:25:32;100602.56;;;15.39;30.80
68525;BME280;55524;51.380;13.372;2023-04-06T11:27:58;100613.19;;;14.38;32.07
68525;BME280;55524;51.380;13.372;2023-04-06T11:30:25;100599.97;;;13.45;31.69
68525;BME280;55524;51.380;13.372;2023-04-06T11:32:52;100625.69;;;13.83;33.53
68525;BME280;55524;51.380;13.372;2023-04-06T11:35:22;100607.72;;;13.88;32.19
68525;BME280;55524;51.380;13.372;2023-04-06T11:37:51;100603.75;;;13.96;31.83
68525;BME280;55524;51.380;13.372;2023-04-06T11:40:36;100587.22;;;14.26;30.58
68525;BME280;55524;51.380;13.372;2023-04-06T11:43:05;100591.97;;;14.19;31.48
68525;BME280;55524;51.380;13.372;2023-04-06T11:45:41;100600.59;;;14.94;32.22
68525;BME280;55524;51.380;13.372;2023-04-06T11:48:18;100595.34;;;14.06;32.43
68525;BME280;55524;51.380;13.372;2023-04-06T11:50:47;100591.84;;;14.22;31.17
68525;BME280;55524;51.380;13.372;2023-04-06T11:53:14;100590.44;;;13.41;31.46
68525;BME280;55524;51.380;13.372;2023-04-06T11:55:40;100609.75;;;13.45;33.83
68525;BME280;55524;51.380;13.372;2023-04-06T11:58:11;100599.50;;;12.77;34.11
68525;BME280;55524;51.380;13.372;2023-04-06T12:00:37;100620.31;;;12.66;35.49
68525;BME280;55524;51.380;13.372;2023-04-06T12:03:03;100608.47;;;11.90;34.89
68525;BME280;55524;51.380;13.372;2023-04-06T12:05:30;100625.97;;;11.25;35.92
68525;BME280;55524;51.380;13.372;2023-04-06T12:07:56;100624.75;;;11.34;36.61
68525;BME280;55524;51.380;13.372;2023-04-06T12:10:23;100615.38;;;11.49;35.08
68525;BME280;55524;51.380;13.372;2023-04-06T12:12:49;100611.97;;;11.91;34.67
68525;BME280;55524;51.380;13.372;2023-04-06T12:15:16;100627.28;;;11.84;36.61
68525;BME280;55524;51.380;13.372;2023-04-06T12:17:43;100601.94;;;11.99;34.57
68525;BME280;55524;51.380;13.372;2023-04-06T12:20:10;100610.75;;;11.30;34.61
68525;BME280;55524;51.380;13.372;2023-04-06T12:22:37;100612.72;;;11.25;35.36
68525;BME280;55524;51.380;13.372;2023-04-06T12:25:03;100613.97;;;11.62;36.01
68525;BME280;55524;51.380;13.372;2023-04-06T12:27:30;100618.69;;;11.54;35.30
68525;BME280;55524;51.380;13.372;2023-04-06T12:29:56;100608.16;;;11.76;35.74
68525;BME280;55524;51.380;13.372;2023-04-06T12:32:22;100606.50;;;11.72;34.99
68525;BME280;55524;51.380;13.372;2023-04-06T12:34:49;100610.50;;;11.84;35.92
68525;BME280;55524;51.380;13.372;2023-04-06T12:37:15;100620.22;;;11.83;35.71
68525;BME280;55524;51.380;13.372;2023-04-06T12:39:41;100611.69;;;11.75;35.37
68525;BME280;55524;51.380;13.372;2023-04-06T12:42:10;100603.09;;;11.46;35.71
68525;BME280;55524;51.380;13.372;2023-04-06T12:44:36;100621.03;;;11.85;37.24
68525;BME280;55524;51.380;13.372;2023-04-06T12:47:03;100603.88;;;11.26;34.98
68525;BME280;55524;51.380;13.372;2023-04-06T12:49:30;100597.88;;;11.90;34.46
68525;BME280;55524;51.380;13.372;2023-04-06T12:51:56;100615.25;;;11.97;36.45
68525;BME280;55524;51.380;13.372;2023-04-06T12:54:22;100600.28;;;11.51;35.77
68525;BME280;55524;51.380;13.372;2023-04-06T12:56:49;100593.63;;;11.41;35.73
68525;BME280;55524;51.380;13.372;2023-04-06T12:59:15;100596.19;;;11.88;35.65
68525;BME280;55524;51.380;13.372;2023-04-06T13:01:42;100592.13;;;12.23;35.41